Time,TemperatureF,DewpointF,PressureIn,WindDirection,WindDirectionDegrees,WindSpeedMPH,WindSpeedGustMPH,Humidity,HourlyPrecipIn,Conditions,Clouds,dailyrainin,SoftwareType,DateUTC
2013-02-04 00:07:00,57.9,53.7,30.10,North,351,0.0,4.0,86,0.00,,,0.00,Wunderground v.1.15,2013-02-04 05:07:00,
2013-02-04 00:12:00,57.7,53.5,30.10,North,355,0.0,0.0,86,0.00,,,0.00,Wunderground v.1.15,2013-02-04 05:12:00,
2013-02-04 00:17:00,57.5,53.7,30.09,North,351,0.0,0.0,87,0.00,,,0.00,Wunderground v.1.15,2013-02-04 05:17:00,
2013-02-04 00:22:00,57.2,53.4,30.09,North,351,0.0,0.0,87,0.00,,,0.00,Wunderground v.1.15,2013-02-04 05:22:00,
2013-02-04 00:32:00,56.7,53.2,30.09,North,351,0.0,0.0,88,0.00,,,0.00,Wunderground v.1.15,2013-02-04 05:32:00,
2013-02-04 00:42:00,55.9,52.1,30.09,North,351,0.0,0.0,87,0.00,,,0.00,Wunderground v.1.15,2013-02-04 05:42:00,
2013-02-04 00:52:00,55.1,51.6,30.09,North,351,0.0,0.0,88,0.00,,,0.00,Wunderground v.1.15,2013-02-04 05:52:00,
2013-02-04 01:02:00,54.9,52.3,30.09,North,351,0.0,7.0,91,0.00,,,0.00,Wunderground v.1.15,2013-02-04 06:02:00,
2013-02-04 01:07:00,55.0,52.4,30.09,North,350,0.0,7.0,91,0.00,,,0.00,Wunderground v.1.15,2013-02-04 06:07:00,
2013-02-04 01:17:00,55.0,52.4,30.09,North,351,0.0,7.0,91,0.00,,,0.00,Wunderground v.1.15,2013-02-04 06:17:00,
2013-02-04 01:27:00,54.3,51.7,30.09,North,351,0.0,7.0,91,0.00,,,0.00,Wunderground v.1.15,2013-02-04 06:27:00,
2013-02-04 01:37:00,54.5,52.2,30.09,North,351,0.0,7.0,92,0.00,,,0.00,Wunderground v.1.15,2013-02-04 06:37:00,
2013-02-04 01:47:00,54.1,51.5,30.09,North,350,0.0,7.0,91,0.00,,,0.00,Wunderground v.1.15,2013-02-04 06:47:00,
2013-02-04 01:57:00,53.3,51.0,30.09,North,351,0.0,7.0,92,0.00,,,0.00,Wunderground v.1.15,2013-02-04 06:57:00,
2013-02-04 02:07:00,54.7,53.0,30.08,North,355,0.0,7.0,94,0.00,,,0.00,Wunderground v.1.15,2013-02-04 07:07:00,
2013-02-04 02:12:00,55.4,53.7,30.08,North,355,0.0,0.0,94,0.00,,,0.00,Wunderground v.1.15,2013-02-04 07:12:00,
2013-02-04 02:22:00,55.6,53.9,30.08,North,355,0.0,0.0,94,0.00,,,0.00,Wunderground v.1.15,2013-02-04 07:22:00,
2013-02-04 02:32:00,55.4,53.4,30.09,North,355,0.0,0.0,93,0.00,,,0.00,Wunderground v.1.15,2013-02-04 07:32:00,
2013-02-04 02:42:00,55.3,53.3,30.09,North,355,0.0,0.0,93,0.00,,,0.00,Wunderground v.1.15,2013-02-04 07:42:00,
2013-02-04 02:47:00,55.2,53.2,30.09,North,355,0.0,0.0,93,0.00,,,0.00,Wunderground v.1.15,2013-02-04 07:47:00,
2013-02-04 02:57:00,54.9,52.6,30.09,North,360,1.0,2.0,92,0.00,,,0.00,Wunderground v.1.15,2013-02-04 07:57:00,
2013-02-04 03:02:00,54.8,52.5,30.09,North,5,1.0,1.0,92,0.00,,,0.00,Wunderground v.1.15,2013-02-04 08:02:00,
2013-02-04 03:12:00,54.9,52.0,30.09,North,360,1.0,1.0,90,0.00,,,0.00,Wunderground v.1.15,2013-02-04 08:12:00,
2013-02-04 03:22:00,55.1,52.5,30.08,North,355,2.0,3.0,91,0.00,,,0.00,Wunderground v.1.15,2013-02-04 08:22:00,
2013-02-04 03:32:00,54.9,52.3,30.08,North,11,2.0,2.0,91,0.00,,,0.00,Wunderground v.1.15,2013-02-04 08:32:00,
2013-02-04 03:37:00,54.7,52.1,30.08,North,5,2.0,2.0,91,0.00,,,0.00,Wunderground v.1.15,2013-02-04 08:37:00,
2013-02-04 03:47:00,54.3,51.4,30.08,North,360,3.0,3.0,90,0.00,,,0.00,Wunderground v.1.15,2013-02-04 08:47:00,
2013-02-04 03:52:00,54.0,51.1,30.08,North,5,2.0,3.0,90,0.00,,,0.00,Wunderground v.1.15,2013-02-04 08:52:00,
2013-02-04 03:57:00,53.9,51.0,30.08,North,5,3.0,3.0,90,0.00,,,0.00,Wunderground v.1.15,2013-02-04 08:57:00,
2013-02-04 04:07:00,53.6,50.7,30.08,North,355,3.0,3.0,90,0.00,,,0.00,Wunderground v.1.15,2013-02-04 09:07:00,
2013-02-04 04:17:00,53.3,50.1,30.08,North,355,1.0,3.0,89,0.00,,,0.00,Wunderground v.1.15,2013-02-04 09:17:00,
2013-02-04 04:27:00,53.0,49.8,30.08,North,360,0.0,2.0,89,0.00,,,0.00,Wunderground v.1.15,2013-02-04 09:27:00,
2013-02-04 04:37:00,52.9,49.4,30.08,NNE,15,1.0,1.0,88,0.00,,,0.00,Wunderground v.1.15,2013-02-04 09:37:00,
2013-02-04 04:47:00,52.8,49.3,30.09,North,5,1.0,1.0,88,0.00,,,0.00,Wunderground v.1.15,2013-02-04 09:47:00,
2013-02-04 04:52:00,52.7,49.2,30.09,North,5,0.0,0.0,88,0.00,,,0.00,Wunderground v.1.15,2013-02-04 09:52:00,
2013-02-04 05:02:00,52.1,48.7,30.09,North,5,0.0,8.0,88,0.00,,,0.00,Wunderground v.1.15,2013-02-04 10:02:00,
2013-02-04 05:07:00,51.8,48.4,30.09,North,5,0.0,8.0,88,0.00,,,0.00,Wunderground v.1.15,2013-02-04 10:07:00,
2013-02-04 05:17:00,51.3,48.2,30.09,NE,34,0.0,8.0,89,0.00,,,0.00,Wunderground v.1.15,2013-02-04 10:17:00,
2013-02-04 05:22:00,51.3,48.2,30.09,NE,34,0.0,8.0,89,0.00,,,0.00,Wunderground v.1.15,2013-02-04 10:22:00,
2013-02-04 05:32:00,51.1,48.0,30.09,NE,34,0.0,8.0,89,0.00,,,0.00,Wunderground v.1.15,2013-02-04 10:32:00,
2013-02-04 05:37:00,51.2,48.1,30.09,NE,39,0.0,8.0,89,0.00,,,0.00,Wunderground v.1.15,2013-02-04 10:37:00,
2013-02-04 05:47:00,51.6,48.2,30.09,NE,38,0.0,8.0,88,0.00,,,0.00,Wunderground v.1.15,2013-02-04 10:47:00,
2013-02-04 05:57:00,51.8,48.1,30.09,NE,40,0.0,8.0,87,0.00,,,0.00,Wunderground v.1.15,2013-02-04 10:57:00,
2013-02-04 06:07:00,51.5,47.8,30.09,NE,39,0.0,8.0,87,0.00,,,0.00,Wunderground v.1.15,2013-02-04 11:07:00,
2013-02-04 06:12:00,51.1,47.4,30.09,NE,39,0.0,0.0,87,0.00,,,0.00,Wunderground v.1.15,2013-02-04 11:12:00,
2013-02-04 06:22:00,50.6,47.2,30.09,NE,40,0.0,0.0,88,0.00,,,0.00,Wunderground v.1.15,2013-02-04 11:22:00,
2013-02-04 06:32:00,49.9,46.8,30.10,NE,39,0.0,0.0,89,0.00,,,0.00,Wunderground v.1.15,2013-02-04 11:32:00,
2013-02-04 06:42:00,48.8,45.4,30.10,NE,40,0.0,0.0,88,0.00,,,0.00,Wunderground v.1.15,2013-02-04 11:42:00,
2013-02-04 06:52:00,48.1,45.3,30.10,NE,39,0.0,0.0,90,0.00,,,0.00,Wunderground v.1.15,2013-02-04 11:52:00,
2013-02-04 07:02:00,47.5,44.7,30.10,NE,40,0.0,8.0,90,0.00,,,0.00,Wunderground v.1.15,2013-02-04 12:02:00,
2013-02-04 07:07:00,47.2,44.4,30.10,NE,40,0.0,8.0,90,0.00,,,0.00,Wunderground v.1.15,2013-02-04 12:07:00,
2013-02-04 07:12:00,46.9,44.1,30.10,NE,40,0.0,8.0,90,0.00,,,0.00,Wunderground v.1.15,2013-02-04 12:12:00,
2013-02-04 07:17:00,46.6,44.1,30.11,NE,40,0.0,8.0,91,0.00,,,0.00,Wunderground v.1.15,2013-02-04 12:17:00,
2013-02-04 07:27:00,46.2,43.7,30.11,NE,39,0.0,8.0,91,0.00,,,0.00,Wunderground v.1.15,2013-02-04 12:27:00,
2013-02-04 07:37:00,46.3,44.1,30.11,NE,40,0.0,8.0,92,0.00,,,0.00,Wunderground v.1.15,2013-02-04 12:37:00,
2013-02-04 07:42:00,46.5,44.3,30.11,NE,40,0.0,8.0,92,0.00,,,0.00,Wunderground v.1.15,2013-02-04 12:42:00,
2013-02-04 07:52:00,47.5,45.6,30.12,NW,315,0.0,8.0,93,0.00,,,0.00,Wunderground v.1.15,2013-02-04 12:52:00,
2013-02-04 08:02:00,48.7,46.8,30.12,NW,316,0.0,8.0,93,0.00,,,0.00,Wunderground v.1.15,2013-02-04 13:02:00,
2013-02-04 08:12:00,51.0,48.8,30.12,NW,317,0.0,0.0,92,0.00,,,0.00,Wunderground v.1.15,2013-02-04 13:12:00,
2013-02-04 08:22:00,52.9,49.4,30.12,NW,317,0.0,0.0,88,0.00,,,0.00,Wunderground v.1.15,2013-02-04 13:22:00,
2013-02-04 08:32:00,54.6,49.9,30.12,NW,318,0.0,0.0,84,0.00,,,0.00,Wunderground v.1.15,2013-02-04 13:32:00,
2013-02-04 08:42:00,55.4,49.7,30.12,NW,319,0.0,0.0,81,0.00,,,0.00,Wunderground v.1.15,2013-02-04 13:42:00,
2013-02-04 08:52:00,56.1,48.3,30.12,NE,46,1.0,1.0,75,0.00,,,0.00,Wunderground v.1.15,2013-02-04 13:52:00,
2013-02-04 08:57:00,56.3,48.8,30.12,NE,45,1.0,1.0,76,0.00,,,0.00,Wunderground v.1.15,2013-02-04 13:57:00,
2013-02-04 09:07:00,57.3,49.1,30.13,NE,46,0.0,0.0,74,0.00,,,0.00,Wunderground v.1.15,2013-02-04 14:07:00,
2013-02-04 09:12:00,57.8,48.8,30.13,NE,46,0.0,2.0,72,0.00,,,0.00,Wunderground v.1.15,2013-02-04 14:12:00,
2013-02-04 09:22:00,58.7,48.9,30.14,ENE,61,1.0,1.0,70,0.00,,,0.00,Wunderground v.1.15,2013-02-04 14:22:00,
2013-02-04 09:32:00,59.2,48.6,30.13,NE,38,2.0,2.0,68,0.00,,,0.00,Wunderground v.1.15,2013-02-04 14:32:00,
2013-02-04 09:42:00,59.4,48.8,30.13,NNE,22,3.0,3.0,68,0.00,,,0.00,Wunderground v.1.15,2013-02-04 14:42:00,
2013-02-04 09:52:00,59.7,49.1,30.13,NNE,32,2.0,4.0,68,0.00,,,0.00,Wunderground v.1.15,2013-02-04 14:52:00,
2013-02-04 09:57:00,60.1,48.7,30.13,NNE,17,2.0,4.0,66,0.00,,,0.00,Wunderground v.1.15,2013-02-04 14:57:00,
2013-02-04 10:02:00,60.6,49.6,30.13,ENE,62,2.0,7.0,67,0.00,,,0.00,Wunderground v.1.15,2013-02-04 15:02:00,
2013-02-04 10:12:00,60.9,48.2,30.13,NE,48,2.0,2.0,63,0.00,,,0.00,Wunderground v.1.15,2013-02-04 15:12:00,
2013-02-04 10:17:00,61.2,48.1,30.14,ENE,59,1.0,2.0,62,0.00,,,0.00,Wunderground v.1.15,2013-02-04 15:17:00,
2013-02-04 10:27:00,62.7,45.3,30.14,ESE,103,3.0,7.0,53,0.00,,,0.00,Wunderground v.1.15,2013-02-04 15:27:00,
2013-02-04 10:37:00,63.2,43.7,30.13,ENE,70,3.0,4.0,49,0.00,,,0.00,Wunderground v.1.15,2013-02-04 15:37:00,
2013-02-04 10:47:00,63.7,44.2,30.13,East,98,3.0,3.0,49,0.00,,,0.00,Wunderground v.1.15,2013-02-04 15:47:00,
2013-02-04 10:57:00,64.1,44.5,30.13,ESE,121,3.0,3.0,49,0.00,,,0.00,Wunderground v.1.15,2013-02-04 15:57:00,
2013-02-04 11:07:00,64.2,43.5,30.12,ENE,63,3.0,8.0,47,0.00,,,0.00,Wunderground v.1.15,2013-02-04 16:07:00,
2013-02-04 11:17:00,64.7,42.9,30.11,ENE,73,3.0,8.0,45,0.00,,,0.00,Wunderground v.1.15,2013-02-04 16:17:00,
2013-02-04 11:27:00,64.8,41.8,30.11,ESE,117,3.0,8.0,43,0.00,,,0.00,Wunderground v.1.15,2013-02-04 16:27:00,
2013-02-04 11:37:00,65.0,43.1,30.11,East,82,3.0,8.0,45,0.00,,,0.00,Wunderground v.1.15,2013-02-04 16:37:00,
2013-02-04 11:47:00,65.4,42.9,30.11,ESE,119,2.0,8.0,44,0.00,,,0.00,Wunderground v.1.15,2013-02-04 16:47:00,
2013-02-04 11:57:00,66.1,41.1,30.11,SSE,165,2.0,2.0,40,0.00,,,0.00,Wunderground v.1.15,2013-02-04 16:57:00,
2013-02-04 12:07:00,66.5,41.4,30.11,South,175,3.0,8.0,40,0.00,,,0.00,Wunderground v.1.15,2013-02-04 17:07:00,
2013-02-04 12:12:00,67.0,42.5,30.11,South,181,2.0,4.0,41,0.00,,,0.00,Wunderground v.1.15,2013-02-04 17:12:00,
2013-02-04 12:22:00,66.8,40.4,30.10,SE,128,2.0,4.0,38,0.00,,,0.00,Wunderground v.1.15,2013-02-04 17:22:00,
2013-02-04 12:27:00,67.1,41.3,30.10,SE,124,1.0,4.0,39,0.00,,,0.00,Wunderground v.1.15,2013-02-04 17:27:00,
2013-02-04 12:37:00,67.1,38.5,30.09,SE,126,1.0,3.0,35,0.00,,,0.00,Wunderground v.1.15,2013-02-04 17:37:00,
2013-02-04 12:47:00,67.3,40.8,30.09,SE,139,1.0,1.0,38,0.00,,,0.00,Wunderground v.1.15,2013-02-04 17:47:00,
2013-02-04 12:57:00,68.0,41.4,30.09,SE,134,1.0,1.0,38,0.00,,,0.00,Wunderground v.1.15,2013-02-04 17:57:00,
2013-02-04 13:07:00,69.2,40.4,30.08,SW,225,2.0,10.0,35,0.00,,,0.00,Wunderground v.1.15,2013-02-04 18:07:00,
2013-02-04 13:17:00,69.3,40.5,30.07,WSW,240,3.0,10.0,35,0.00,,,0.00,Wunderground v.1.15,2013-02-04 18:17:00,
2013-02-04 13:27:00,69.5,39.1,30.07,SW,229,3.0,10.0,33,0.00,,,0.00,Wunderground v.1.15,2013-02-04 18:27:00,
2013-02-04 13:32:00,69.7,41.5,30.06,SW,232,2.0,2.0,36,0.00,,,0.00,Wunderground v.1.15,2013-02-04 18:32:00,
2013-02-04 13:42:00,70.6,41.6,30.06,WSW,246,1.0,1.0,35,0.00,,,0.00,Wunderground v.1.15,2013-02-04 18:42:00,
2013-02-04 13:47:00,70.9,41.9,30.05,SSW,204,1.0,10.0,35,0.00,,,0.00,Wunderground v.1.15,2013-02-04 18:47:00,
2013-02-04 13:57:00,71.0,42.7,30.05,SW,220,2.0,10.0,36,0.00,,,0.00,Wunderground v.1.15,2013-02-04 18:57:00,
2013-02-04 14:07:00,70.9,42.6,30.04,SW,223,2.0,10.0,36,0.00,,,0.00,Wunderground v.1.15,2013-02-04 19:07:00,
2013-02-04 14:17:00,71.3,41.5,30.04,SW,226,1.0,4.0,34,0.00,,,0.00,Wunderground v.1.15,2013-02-04 19:17:00,
2013-02-04 14:27:00,71.0,39.6,30.04,SW,224,2.0,6.0,32,0.00,,,0.00,Wunderground v.1.15,2013-02-04 19:27:00,
2013-02-04 14:37:00,70.9,37.0,30.03,SW,220,2.0,3.0,29,0.00,,,0.00,Wunderground v.1.15,2013-02-04 19:37:00,
2013-02-04 14:42:00,70.9,33.3,30.03,SSW,205,2.0,2.0,25,0.00,,,0.00,Wunderground v.1.15,2013-02-04 19:42:00,
2013-02-04 14:52:00,71.6,35.8,30.03,SW,217,1.0,1.0,27,0.00,,,0.00,Wunderground v.1.15,2013-02-04 19:52:00,
2013-02-04 15:02:00,71.4,37.5,30.03,SSW,207,1.0,9.0,29,0.00,,,0.00,Wunderground v.1.15,2013-02-04 20:02:00,
2013-02-04 15:07:00,72.0,35.2,30.03,SW,236,1.0,9.0,26,0.00,,,0.00,Wunderground v.1.15,2013-02-04 20:07:00,
2013-02-04 15:17:00,72.9,32.9,30.03,SSW,203,1.0,9.0,23,0.00,,,0.00,Wunderground v.1.15,2013-02-04 20:17:00,
2013-02-04 15:22:00,72.9,31.8,30.03,South,189,2.0,9.0,22,0.00,,,0.00,Wunderground v.1.15,2013-02-04 20:22:00,
2013-02-04 15:32:00,72.5,31.5,30.03,WSW,245,2.0,9.0,22,0.00,,,0.00,Wunderground v.1.15,2013-02-04 20:32:00,
2013-02-04 15:42:00,72.3,30.1,30.03,SW,217,1.0,9.0,21,0.00,,,0.00,Wunderground v.1.15,2013-02-04 20:42:00,
2013-02-04 15:52:00,72.5,27.9,30.03,SSW,211,1.0,1.0,19,0.00,,,0.00,Wunderground v.1.15,2013-02-04 20:52:00,
2013-02-04 16:02:00,72.4,27.8,30.03,SW,226,2.0,2.0,19,0.00,,,0.00,Wunderground v.1.15,2013-02-04 21:02:00,
2013-02-04 16:12:00,72.2,30.1,30.03,SSW,200,1.0,3.0,21,0.00,,,0.00,Wunderground v.1.15,2013-02-04 21:12:00,
2013-02-04 16:22:00,71.5,25.7,30.03,WSW,255,3.0,3.0,18,0.00,,,0.00,Wunderground v.1.15,2013-02-04 21:22:00,
2013-02-04 16:27:00,71.4,25.7,30.03,WSW,254,2.0,5.0,18,0.00,,,0.00,Wunderground v.1.15,2013-02-04 21:27:00,
2013-02-04 16:32:00,71.3,25.6,30.03,WSW,250,2.0,2.0,18,0.00,,,0.00,Wunderground v.1.15,2013-02-04 21:32:00,
2013-02-04 16:42:00,71.6,25.8,30.03,WSW,246,1.0,1.0,18,0.00,,,0.00,Wunderground v.1.15,2013-02-04 21:42:00,
2013-02-04 16:52:00,70.8,23.8,30.03,SW,234,3.0,3.0,17,0.00,,,0.00,Wunderground v.1.15,2013-02-04 21:52:00,
2013-02-04 17:02:00,70.9,25.2,30.03,SW,234,1.0,1.0,18,0.00,,,0.00,Wunderground v.1.15,2013-02-04 22:02:00,
2013-02-04 17:12:00,70.4,29.7,30.03,SW,234,1.0,1.0,22,0.00,,,0.00,Wunderground v.1.15,2013-02-04 22:12:00,
2013-02-04 17:17:00,70.0,30.5,30.03,West,264,1.0,8.0,23,0.00,,,0.00,Wunderground v.1.15,2013-02-04 22:17:00,
2013-02-04 17:27:00,69.7,29.1,30.03,West,265,0.0,8.0,22,0.00,,,0.00,Wunderground v.1.15,2013-02-04 22:27:00,
2013-02-04 17:37:00,68.9,32.6,30.03,West,263,1.0,8.0,26,0.00,,,0.00,Wunderground v.1.15,2013-02-04 22:37:00,
2013-02-04 17:47:00,67.3,40.8,30.03,West,277,1.0,8.0,38,0.00,,,0.00,Wunderground v.1.15,2013-02-04 22:47:00,
2013-02-04 17:57:00,65.7,42.0,30.03,West,275,1.0,8.0,42,0.00,,,0.00,Wunderground v.1.15,2013-02-04 22:57:00,
2013-02-04 18:07:00,64.4,43.7,30.04,WNW,286,0.0,8.0,47,0.00,,,0.00,Wunderground v.1.15,2013-02-04 23:07:00,
2013-02-04 18:12:00,63.9,43.8,30.04,WNW,289,0.0,0.0,48,0.00,,,0.00,Wunderground v.1.15,2013-02-04 23:12:00,
2013-02-04 18:17:00,63.3,43.8,30.04,WNW,295,1.0,1.0,49,0.00,,,0.00,Wunderground v.1.15,2013-02-04 23:17:00,
2013-02-04 18:22:00,62.9,44.5,30.04,WNW,298,1.0,3.0,51,0.00,,,0.00,Wunderground v.1.15,2013-02-04 23:22:00,
2013-02-04 18:32:00,62.2,45.3,30.04,WNW,296,0.0,0.0,54,0.00,,,0.00,Wunderground v.1.15,2013-02-04 23:32:00,
2013-02-04 18:42:00,61.6,46.2,30.04,WNW,297,0.0,0.0,57,0.00,,,0.00,Wunderground v.1.15,2013-02-04 23:42:00,
2013-02-04 18:52:00,61.2,47.2,30.04,NW,309,0.0,0.0,60,0.00,,,0.00,Wunderground v.1.15,2013-02-04 23:52:00,
2013-02-04 18:57:00,61.1,48.0,30.04,NW,309,0.0,0.0,62,0.00,,,0.00,Wunderground v.1.15,2013-02-04 23:57:00,
2013-02-04 19:07:00,61.0,49.1,30.04,NW,310,0.0,7.0,65,0.00,,,0.00,Wunderground v.1.15,2013-02-05 00:07:00,
2013-02-04 19:17:00,60.8,49.4,30.05,NW,309,0.0,7.0,66,0.00,,,0.00,Wunderground v.1.15,2013-02-05 00:17:00,
2013-02-04 19:22:00,60.6,49.2,30.05,NW,310,0.0,7.0,66,0.00,,,0.00,Wunderground v.1.15,2013-02-05 00:22:00,
2013-02-04 19:27:00,60.6,49.6,30.05,NW,310,0.0,7.0,67,0.00,,,0.00,Wunderground v.1.15,2013-02-05 00:27:00,
2013-02-04 19:37:00,60.3,49.7,30.04,NW,310,0.0,7.0,68,0.00,,,0.00,Wunderground v.1.15,2013-02-05 00:37:00,
2013-02-04 19:42:00,60.1,49.5,30.04,NW,311,0.0,7.0,68,0.00,,,0.00,Wunderground v.1.15,2013-02-05 00:42:00,
2013-02-04 19:52:00,59.8,49.6,30.05,NW,311,0.0,7.0,69,0.00,,,0.00,Wunderground v.1.15,2013-02-05 00:52:00,
2013-02-04 20:02:00,59.6,49.4,30.05,NW,311,0.0,7.0,69,0.00,,,0.00,Wunderground v.1.15,2013-02-05 01:02:00,
2013-02-04 20:07:00,59.5,49.3,30.05,NW,311,0.0,7.0,69,0.00,,,0.00,Wunderground v.1.15,2013-02-05 01:07:00,
2013-02-04 20:17:00,59.4,48.8,30.06,NW,311,0.0,0.0,68,0.00,,,0.00,Wunderground v.1.15,2013-02-05 01:17:00,
2013-02-04 20:27:00,59.3,49.1,30.06,NW,311,0.0,0.0,69,0.00,,,0.00,Wunderground v.1.15,2013-02-05 01:27:00,
2013-02-04 20:37:00,59.2,49.4,30.06,NW,311,0.0,0.0,70,0.00,,,0.00,Wunderground v.1.15,2013-02-05 01:37:00,
2013-02-04 20:47:00,59.2,49.4,30.06,NW,311,0.0,0.0,70,0.00,,,0.00,Wunderground v.1.15,2013-02-05 01:47:00,
2013-02-04 20:52:00,59.4,49.2,30.06,NW,311,0.0,0.0,69,0.00,,,0.00,Wunderground v.1.15,2013-02-05 01:52:00,
2013-02-04 21:02:00,59.7,49.5,30.06,NW,313,0.0,5.0,69,0.00,,,0.00,Wunderground v.1.15,2013-02-05 02:02:00,
2013-02-04 21:12:00,59.5,49.3,30.06,NW,312,0.0,5.0,69,0.00,,,0.00,Wunderground v.1.15,2013-02-05 02:12:00,
2013-02-04 21:22:00,58.9,49.1,30.06,NW,312,0.0,5.0,70,0.00,,,0.00,Wunderground v.1.15,2013-02-05 02:22:00,
2013-02-04 21:32:00,58.2,48.8,30.06,NW,313,0.0,5.0,71,0.00,,,0.00,Wunderground v.1.15,2013-02-05 02:32:00,
2013-02-04 21:42:00,57.4,48.8,30.06,NW,313,0.0,5.0,73,0.00,,,0.00,Wunderground v.1.15,2013-02-05 02:42:00,
2013-02-04 21:52:00,56.7,48.5,30.06,NW,313,0.0,5.0,74,0.00,,,0.00,Wunderground v.1.15,2013-02-05 02:52:00,
2013-02-04 22:02:00,56.0,48.2,30.06,NW,313,0.0,5.0,75,0.00,,,0.00,Wunderground v.1.15,2013-02-05 03:02:00,
2013-02-04 22:07:00,55.7,48.2,30.06,NW,312,0.0,5.0,76,0.00,,,0.00,Wunderground v.1.15,2013-02-05 03:07:00,
2013-02-04 22:17:00,55.2,48.5,30.06,NW,313,0.0,0.0,78,0.00,,,0.00,Wunderground v.1.15,2013-02-05 03:17:00,
2013-02-04 22:27:00,54.8,48.4,30.06,NW,312,0.0,0.0,79,0.00,,,0.00,Wunderground v.1.15,2013-02-05 03:27:00,
2013-02-04 22:37:00,54.6,48.6,30.06,NW,313,0.0,0.0,80,0.00,,,0.00,Wunderground v.1.15,2013-02-05 03:37:00,
2013-02-04 22:42:00,54.5,48.8,30.06,NW,312,0.0,0.0,81,0.00,,,0.00,Wunderground v.1.15,2013-02-05 03:42:00,
2013-02-04 22:52:00,54.4,48.7,30.06,NW,312,0.0,0.0,81,0.00,,,0.00,Wunderground v.1.15,2013-02-05 03:52:00,
2013-02-04 23:02:00,55.0,49.9,30.07,NW,312,0.0,0.0,83,0.00,,,0.00,Wunderground v.1.15,2013-02-05 04:02:00,
2013-02-04 23:12:00,57.0,51.2,30.07,NW,314,0.0,0.0,81,0.00,,,0.00,Wunderground v.1.15,2013-02-05 04:12:00,
2013-02-04 23:22:00,58.4,51.6,30.07,NNW,327,0.0,0.0,78,0.00,,,0.00,Wunderground v.1.15,2013-02-05 04:22:00,
2013-02-04 23:32:00,58.9,50.3,30.07,North,355,1.0,1.0,73,0.00,,,0.00,Wunderground v.1.15,2013-02-05 04:32:00,
2013-02-04 23:42:00,58.6,49.2,30.07,North,11,1.0,1.0,71,0.00,,,0.00,Wunderground v.1.15,2013-02-05 04:42:00,
2013-02-04 23:52:00,58.4,48.7,30.07,North,5,1.0,1.0,70,0.00,,,0.00,Wunderground v.1.15,2013-02-05 04:52:00,